createdAt,value
2023-04-02T00:02:25.450Z,9.60
2023-04-02T00:05:25.965Z,10.67
2023-04-02T00:07:53.730Z,9.50
2023-04-02T00:10:27.445Z,10.97
2023-04-02T00:13:14.813Z,10.93
2023-04-02T00:15:42.646Z,12.00
2023-04-02T00:18:16.654Z,11.63
2023-04-02T00:20:46.029Z,11.60
2023-04-02T00:23:13.258Z,11.10
2023-04-02T00:25:43.051Z,11.27
2023-04-02T00:28:12.678Z,10.67
2023-04-02T00:30:45.261Z,11.70
2023-04-02T00:33:15.635Z,11.77
2023-04-02T00:35:42.655Z,12.07
2023-04-02T00:38:17.726Z,12.17
2023-04-02T00:40:44.054Z,12.53
2023-04-02T00:43:16.471Z,14.17
2023-04-02T00:45:51.137Z,13.67
2023-04-02T00:48:35.851Z,13.43
2023-04-02T00:51:17.789Z,14.90
2023-04-02T00:53:45.899Z,12.33
2023-04-02T00:56:25.845Z,11.13
2023-04-02T00:58:53.030Z,8.83
2023-04-02T01:01:22.788Z,8.23
2023-04-02T01:03:53.897Z,6.80
2023-04-02T01:06:20.847Z,6.90
2023-04-02T01:09:05.968Z,6.53
2023-04-02T01:12:00.395Z,7.87
2023-04-02T01:14:29.628Z,5.73
2023-04-02T01:17:01.956Z,6.00
2023-04-02T01:19:44.837Z,6.10
2023-04-02T01:22:18.163Z,6.33
2023-04-02T01:24:44.753Z,5.67
2023-04-02T01:27:23.592Z,5.97
2023-04-02T01:29:53.053Z,5.23
2023-04-02T01:32:20.347Z,4.80
2023-04-02T01:34:47.591Z,5.57
2023-04-02T01:37:32.276Z,4.80
2023-04-02T01:40:07.817Z,4.23
2023-04-02T01:42:52.310Z,3.80
2023-04-02T01:45:19.673Z,3.60
2023-04-02T01:47:46.225Z,3.70
2023-04-02T01:50:21.895Z,4.07
2023-04-02T01:52:49.355Z,3.90
2023-04-02T01:55:18.113Z,4.07
2023-04-02T01:57:47.106Z,3.70
2023-04-02T02:00:17.196Z,4.83
2023-04-02T02:02:46.413Z,3.77
2023-04-02T02:05:13.980Z,4.23
2023-04-02T02:07:41.200Z,5.20
2023-04-02T02:10:14.261Z,4.50
2023-04-02T02:12:41.588Z,4.53
2023-04-02T02:15:14.365Z,4.83
2023-04-02T02:17:40.733Z,4.00
2023-04-02T02:20:12.355Z,5.07
2023-04-02T02:22:44.662Z,4.40
2023-04-02T02:25:13.502Z,4.50
2023-04-02T02:27:48.985Z,5.10
2023-04-02T02:30:15.455Z,5.20
2023-04-02T02:32:53.940Z,4.90
2023-04-02T02:35:25.885Z,4.83
2023-04-02T02:37:57.438Z,5.70
2023-04-02T02:40:27.468Z,5.00
2023-04-02T02:43:14.245Z,6.80
2023-04-02T02:45:59.801Z,5.10
2023-04-02T02:48:44.833Z,4.90
2023-04-02T02:51:17.657Z,6.07
2023-04-02T02:53:52.582Z,5.10
2023-04-02T02:56:20.382Z,5.07
2023-04-02T02:58:46.828Z,5.40
2023-04-02T03:01:13.177Z,4.80
2023-04-02T03:03:40.248Z,5.00
2023-04-02T03:06:09.070Z,5.43
2023-04-02T03:09:01.878Z,4.67
2023-04-02T03:11:52.320Z,4.40
2023-04-02T03:14:28.123Z,4.53
2023-04-02T03:16:58.049Z,4.07
2023-04-02T03:19:29.054Z,4.07
2023-04-02T03:22:18.625Z,4.73
2023-04-02T03:24:57.792Z,4.00
2023-04-02T03:27:27.818Z,4.20
2023-04-02T03:30:10.185Z,4.23
2023-04-02T03:32:38.302Z,4.23
2023-04-02T03:35:22.163Z,4.20
2023-04-02T03:37:54.271Z,4.00
2023-04-02T03:40:26.117Z,4.50
2023-04-02T03:42:55.195Z,4.33
2023-04-02T03:45:23.254Z,4.37
2023-04-02T03:47:53.520Z,4.50
2023-04-02T03:50:26.075Z,4.20
2023-04-02T03:52:52.740Z,4.83
2023-04-02T03:55:23.439Z,4.63
2023-04-02T03:57:58.151Z,4.50
2023-04-02T04:00:32.631Z,4.83
2023-04-02T04:03:02.762Z,4.27
2023-04-02T04:05:30.598Z,3.83
2023-04-02T04:08:00.620Z,4.50
2023-04-02T04:10:27.989Z,3.77
2023-04-02T04:12:56.504Z,4.03
2023-04-02T04:15:26.903Z,3.87
2023-04-02T04:18:03.212Z,4.03
2023-04-02T04:20:33.787Z,4.07
2023-04-02T04:23:19.943Z,4.47
2023-04-02T04:25:49.318Z,4.17
2023-04-02T04:28:25.232Z,4.60
2023-04-02T04:30:59.938Z,5.30
2023-04-02T04:33:29.006Z,5.33
2023-04-02T04:36:03.009Z,5.10
2023-04-02T04:38:33.889Z,5.93
2023-04-02T04:41:14.304Z,5.80
2023-04-02T04:43:43.567Z,6.00
2023-04-02T04:46:14.758Z,6.40
2023-04-02T04:48:56.025Z,6.20
2023-04-02T04:51:27.747Z,6.70
2023-04-02T04:53:55.324Z,6.73
2023-04-02T04:56:24.069Z,7.10
2023-04-02T04:58:56.139Z,9.53
2023-04-02T05:01:41.184Z,7.83
2023-04-02T05:04:16.342Z,6.60
2023-04-02T05:06:44.885Z,7.30
2023-04-02T05:09:15.589Z,7.77
2023-04-02T05:11:44.948Z,6.43
2023-04-02T05:14:18.682Z,7.40
2023-04-02T05:16:54.977Z,7.17
2023-04-02T05:19:41.522Z,6.60
2023-04-02T05:22:13.896Z,6.80
2023-04-02T05:25:02.653Z,6.90
2023-04-02T05:27:52.729Z,6.43
2023-04-02T05:30:20.163Z,7.53
2023-04-02T05:32:48.765Z,7.40
2023-04-02T05:35:16.879Z,7.03
2023-04-02T05:37:43.277Z,8.20
2023-04-02T05:40:14.894Z,8.23
2023-04-02T05:42:43.500Z,8.93
2023-04-02T05:45:20.309Z,9.07
2023-04-02T05:47:48.081Z,6.63
2023-04-02T05:50:30.393Z,7.43
2023-04-02T05:53:00.422Z,7.07
2023-04-02T05:55:29.854Z,6.90
2023-04-02T05:58:21.473Z,7.10
2023-04-02T06:00:56.587Z,7.00
2023-04-02T06:03:27.129Z,7.27
2023-04-02T06:05:55.873Z,7.03
2023-04-02T06:08:24.517Z,6.90
2023-04-02T06:11:14.141Z,7.43
2023-04-02T06:13:40.554Z,7.20
2023-04-02T06:16:06.877Z,8.63
2023-04-02T06:18:34.579Z,8.40
2023-04-02T06:21:01.034Z,7.00
2023-04-02T06:23:33.155Z,7.00
2023-04-02T06:26:09.606Z,7.17
2023-04-02T06:28:42.081Z,7.00
2023-04-02T06:31:12.064Z,7.17
2023-04-02T06:33:38.440Z,8.03
2023-04-02T06:36:05.598Z,6.90
2023-04-02T06:38:32.254Z,8.10
2023-04-02T06:41:00.771Z,7.83
2023-04-02T06:43:33.177Z,7.97
2023-04-02T06:46:01.176Z,7.57
2023-04-02T06:48:28.704Z,8.60
2023-04-02T06:50:57.859Z,8.60
2023-04-02T06:53:26.338Z,9.70
2023-04-02T06:55:55.143Z,7.73
2023-04-02T06:58:21.702Z,9.57
2023-04-02T07:00:49.031Z,8.33
2023-04-02T07:03:19.409Z,7.23
2023-04-02T07:05:46.484Z,7.93
2023-04-02T07:08:12.864Z,8.53
2023-04-02T07:10:39.285Z,7.60
2023-04-02T07:13:05.930Z,7.20
2023-04-02T07:15:32.710Z,10.30
2023-04-02T07:17:59.470Z,10.60
2023-04-02T07:20:26.770Z,9.53
2023-04-02T07:22:53.278Z,8.60
2023-04-02T07:25:19.614Z,8.63
2023-04-02T07:27:46.100Z,8.77
2023-04-02T07:30:12.517Z,8.80
2023-04-02T07:32:38.918Z,9.90
2023-04-02T07:35:05.525Z,10.37
2023-04-02T07:37:31.830Z,11.23
2023-04-02T07:39:58.145Z,10.97
2023-04-02T07:42:24.557Z,10.30
2023-04-02T07:44:51.245Z,12.90
2023-04-02T07:47:17.551Z,16.57
2023-04-02T07:49:43.853Z,10.67
2023-04-02T07:52:11.360Z,10.93
2023-04-02T07:54:38.139Z,10.40
2023-04-02T07:57:04.495Z,11.20
2023-04-02T07:59:30.970Z,13.30
2023-04-02T08:01:58.056Z,11.47
2023-04-02T08:04:24.419Z,11.47
2023-04-02T08:06:50.750Z,10.13
2023-04-02T08:09:17.409Z,9.90
2023-04-02T08:11:43.901Z,10.73
2023-04-02T08:14:10.342Z,9.23
2023-04-02T08:16:43.504Z,8.97
2023-04-02T08:19:09.921Z,12.43
2023-04-02T08:21:36.616Z,10.73
2023-04-02T08:24:04.184Z,12.57
2023-04-02T08:26:31.035Z,13.67
2023-04-02T08:28:57.341Z,12.57
2023-04-02T08:31:24.453Z,10.80
2023-04-02T08:33:50.893Z,11.83
2023-04-02T08:36:18.368Z,12.53
2023-04-02T08:38:44.930Z,12.87
2023-04-02T08:41:19.941Z,10.23
2023-04-02T08:43:56.473Z,10.37
2023-04-02T08:46:27.231Z,13.47
2023-04-02T08:48:59.077Z,10.07
2023-04-02T08:51:30.672Z,11.30
2023-04-02T08:54:01.714Z,10.07
2023-04-02T08:56:27.969Z,9.90
2023-04-02T08:58:56.252Z,9.63
2023-04-02T09:01:37.929Z,10.10
2023-04-02T09:04:06.983Z,9.60
2023-04-02T09:06:34.544Z,13.07
2023-04-02T09:09:01.092Z,11.73
2023-04-02T09:11:35.400Z,10.57
2023-04-02T09:14:03.928Z,10.97
2023-04-02T09:16:37.940Z,20.13
2023-04-02T09:19:13.891Z,18.10
2023-04-02T09:21:43.738Z,11.70
2023-04-02T09:24:12.279Z,10.97
2023-04-02T09:26:38.604Z,12.93
2023-04-02T09:29:07.744Z,11.43
2023-04-02T09:31:39.317Z,11.37
2023-04-02T09:34:24.501Z,11.87
2023-04-02T09:36:51.018Z,13.87
2023-04-02T09:39:22.283Z,14.47
2023-04-02T09:41:59.045Z,11.77
2023-04-02T09:44:31.721Z,12.10
2023-04-02T09:47:00.207Z,12.30
2023-04-02T09:49:28.535Z,11.80
2023-04-02T09:52:06.117Z,11.70
2023-04-02T09:54:33.047Z,9.90
2023-04-02T09:57:00.994Z,9.80
2023-04-02T09:59:45.713Z,13.43
2023-04-02T10:02:32.069Z,10.77
2023-04-02T10:05:03.338Z,9.07
2023-04-02T10:07:31.448Z,10.00
2023-04-02T10:10:02.747Z,17.60
2023-04-02T10:12:30.660Z,26.00
2023-04-02T10:14:57.745Z,10.50
2023-04-02T10:17:32.573Z,9.90
2023-04-02T10:20:01.378Z,10.53
2023-04-02T10:22:27.846Z,11.00
2023-04-02T10:24:54.162Z,8.93
2023-04-02T10:27:39.369Z,11.60
2023-04-02T10:30:15.617Z,9.47
2023-04-02T10:32:44.322Z,15.23
2023-04-02T10:35:20.066Z,8.70
2023-04-02T10:37:46.977Z,9.33
2023-04-02T10:40:23.032Z,8.07
2023-04-02T10:43:00.735Z,10.73
2023-04-02T10:45:36.204Z,10.03
2023-04-02T10:48:05.872Z,8.60
2023-04-02T10:50:32.448Z,9.23
2023-04-02T10:53:15.978Z,10.70
2023-04-02T10:55:44.197Z,8.63
2023-04-02T10:58:36.961Z,9.93
2023-04-02T11:01:09.221Z,13.90
2023-04-02T11:03:48.626Z,11.57
2023-04-02T11:06:15.424Z,10.67
2023-04-02T11:08:42.661Z,8.90
2023-04-02T11:11:14.232Z,9.87
2023-04-02T11:13:48.893Z,14.97
2023-04-02T11:16:15.983Z,12.77
2023-04-02T11:18:43.013Z,9.87
2023-04-02T11:21:28.083Z,9.03
2023-04-02T11:24:00.721Z,10.43
2023-04-02T11:26:41.474Z,9.50
2023-04-02T11:29:16.547Z,9.13
2023-04-02T11:31:43.509Z,8.27
2023-04-02T11:34:13.602Z,9.70
2023-04-02T11:36:55.025Z,8.80
2023-04-02T11:39:40.304Z,8.60
2023-04-02T11:42:21.977Z,9.37
2023-04-02T11:44:48.258Z,8.50
2023-04-02T11:47:22.244Z,9.20
2023-04-02T11:49:54.361Z,7.73
2023-04-02T11:52:25.727Z,8.93
2023-04-02T11:54:59.902Z,8.03
2023-04-02T11:57:28.178Z,8.63
2023-04-02T12:00:05.021Z,8.47
2023-04-02T12:02:40.000Z,7.43
2023-04-02T12:05:15.778Z,7.57
2023-04-02T12:07:52.132Z,13.77
2023-04-02T12:10:20.340Z,8.00
2023-04-02T12:12:46.952Z,7.83
2023-04-02T12:15:31.802Z,7.67
2023-04-02T12:18:05.836Z,10.23
2023-04-02T12:20:34.078Z,7.83
2023-04-02T12:23:00.839Z,8.63
2023-04-02T12:25:32.277Z,7.73
2023-04-02T12:28:06.514Z,8.40
2023-04-02T12:30:33.700Z,7.47
2023-04-02T12:33:19.139Z,7.83
2023-04-02T12:35:47.172Z,8.80
2023-04-02T12:38:32.444Z,8.00
2023-04-02T12:41:03.723Z,7.90
2023-04-02T12:43:31.377Z,10.37
2023-04-02T12:45:59.015Z,21.37
2023-04-02T12:48:26.235Z,8.77
2023-04-02T12:50:52.862Z,7.90
2023-04-02T12:53:25.190Z,7.37
2023-04-02T12:55:52.367Z,7.20
2023-04-02T12:58:27.856Z,7.20
2023-04-02T13:01:09.275Z,6.60
2023-04-02T13:03:35.789Z,7.23
2023-04-02T13:06:02.254Z,8.63
2023-04-02T13:08:30.897Z,8.23
2023-04-02T13:11:01.387Z,8.97
2023-04-02T13:13:30.000Z,7.00
2023-04-02T13:16:00.934Z,7.83
2023-04-02T13:18:27.274Z,8.23
2023-04-02T13:20:58.114Z,7.83
2023-04-02T13:23:30.585Z,8.33
2023-04-02T13:26:01.298Z,8.60
2023-04-02T13:28:28.519Z,9.73
2023-04-02T13:30:54.894Z,11.90
2023-04-02T13:33:21.147Z,7.47
2023-04-02T13:35:47.450Z,7.93
2023-04-02T13:38:13.739Z,9.60
2023-04-02T13:40:40.128Z,8.53
2023-04-02T13:43:06.577Z,7.93
2023-04-02T13:45:34.882Z,8.87
2023-04-02T13:48:25.979Z,7.20
2023-04-02T13:51:14.642Z,7.97
2023-04-02T13:53:40.946Z,7.93
2023-04-02T13:56:08.452Z,7.40
2023-04-02T13:58:34.762Z,7.47
2023-04-02T14:01:01.679Z,9.10
2023-04-02T14:03:28.067Z,17.00
2023-04-02T14:06:26.921Z,8.93
2023-04-02T14:08:53.199Z,6.40
2023-04-02T14:11:28.134Z,6.50
2023-04-02T14:13:57.287Z,6.43
2023-04-02T14:16:23.592Z,6.23
2023-04-02T14:18:49.866Z,8.97
2023-04-02T14:21:22.654Z,9.10
2023-04-02T14:23:55.321Z,9.63
2023-04-02T14:26:45.042Z,9.30
2023-04-02T14:29:20.512Z,6.87
2023-04-02T14:32:05.547Z,5.80
2023-04-02T14:34:34.913Z,6.20
2023-04-02T14:37:06.794Z,7.40
2023-04-02T14:39:33.035Z,7.13
2023-04-02T14:42:05.724Z,6.93
2023-04-02T14:44:35.215Z,6.57
2023-04-02T14:47:30.911Z,6.80
2023-04-02T14:50:00.829Z,4.63
2023-04-02T14:52:28.507Z,5.03
2023-04-02T14:54:59.077Z,4.87
2023-04-02T14:57:35.178Z,4.67
2023-04-02T15:00:10.653Z,4.70
2023-04-02T15:02:36.928Z,17.63
2023-04-02T15:05:05.723Z,8.57
2023-04-02T15:07:43.689Z,4.80
2023-04-02T15:10:29.006Z,6.23
2023-04-02T15:12:56.626Z,4.70
2023-04-02T15:15:42.915Z,5.70
2023-04-02T15:18:11.459Z,4.90
2023-04-02T15:20:50.415Z,4.87
2023-04-02T15:23:22.185Z,4.83
2023-04-02T15:26:01.592Z,4.00
2023-04-02T15:28:27.972Z,3.73
2023-04-02T15:30:57.031Z,4.00
2023-04-02T15:33:26.106Z,4.00
2023-04-02T15:35:56.139Z,5.30
2023-04-02T15:38:24.553Z,4.93
2023-04-02T15:41:03.465Z,5.20
2023-04-02T15:43:39.170Z,4.83
2023-04-02T15:46:11.851Z,6.70
2023-04-02T15:49:01.627Z,4.73
2023-04-02T15:51:37.507Z,4.50
2023-04-02T15:54:14.954Z,5.20
2023-04-02T15:56:56.606Z,5.03
2023-04-02T15:59:29.114Z,4.63
2023-04-02T16:02:18.678Z,5.07
2023-04-02T16:04:48.737Z,5.30
2023-04-02T16:07:18.097Z,6.47
2023-04-02T16:09:50.351Z,7.13
2023-04-02T16:12:18.379Z,6.83
2023-04-02T16:14:46.531Z,7.37
2023-04-02T16:17:24.767Z,6.17
2023-04-02T16:19:56.195Z,5.80
2023-04-02T16:22:26.403Z,5.80
2023-04-02T16:25:06.758Z,4.87
2023-04-02T16:27:33.056Z,6.33
2023-04-02T16:30:17.850Z,10.90
2023-04-02T16:32:56.353Z,10.43
2023-04-02T16:35:48.268Z,7.07
2023-04-02T16:38:23.018Z,7.53
2023-04-02T16:41:09.241Z,5.90
2023-04-02T16:43:38.667Z,7.13
2023-04-02T16:46:11.599Z,7.87
2023-04-02T16:48:37.970Z,5.20
2023-04-02T16:51:14.032Z,5.70
2023-04-02T16:53:47.816Z,5.63
2023-04-02T16:56:23.979Z,4.47
2023-04-02T16:58:56.195Z,4.70
2023-04-02T17:01:36.015Z,4.67
2023-04-02T17:04:02.350Z,4.60
2023-04-02T17:06:47.336Z,4.70
2023-04-02T17:09:18.945Z,5.00
2023-04-02T17:11:49.878Z,5.30
2023-04-02T17:14:36.211Z,4.63
2023-04-02T17:17:03.739Z,4.70
2023-04-02T17:19:31.067Z,4.73
2023-04-02T17:21:59.547Z,4.50
2023-04-02T17:24:25.902Z,4.73
2023-04-02T17:26:54.719Z,5.33
2023-04-02T17:29:27.102Z,3.70
2023-04-02T17:31:54.574Z,2.90
2023-04-02T17:34:23.817Z,11.00
2023-04-02T17:37:04.422Z,5.53
2023-04-02T17:39:42.488Z,4.17
2023-04-02T17:42:11.797Z,3.80
2023-04-02T17:44:41.238Z,3.23
2023-04-02T17:47:25.163Z,3.73
2023-04-02T17:50:03.771Z,3.67
2023-04-02T17:52:43.905Z,5.07
2023-04-02T17:55:29.120Z,6.77
2023-04-02T17:58:09.686Z,4.57
2023-04-02T18:00:45.492Z,3.77
2023-04-02T18:03:17.729Z,3.77
2023-04-02T18:06:06.648Z,3.47
2023-04-02T18:08:33.158Z,3.33
2023-04-02T18:11:18.375Z,4.43
2023-04-02T18:13:53.514Z,3.53
2023-04-02T18:16:27.612Z,5.03
2023-04-02T18:18:56.984Z,4.33
2023-04-02T18:21:38.751Z,3.77
2023-04-02T18:24:23.819Z,10.57
2023-04-02T18:27:25.938Z,5.90
2023-04-02T18:30:09.185Z,4.57
2023-04-02T18:32:52.026Z,2.60
2023-04-02T18:35:26.751Z,3.93
2023-04-02T18:37:53.146Z,3.17
2023-04-02T18:40:19.497Z,2.93
2023-04-02T18:42:56.262Z,5.27
2023-04-02T18:45:40.723Z,2.73
2023-04-02T18:48:33.274Z,2.83
2023-04-02T18:51:00.267Z,3.73
2023-04-02T18:53:28.266Z,2.20
2023-04-02T18:56:03.939Z,2.20
2023-04-02T18:58:42.571Z,3.00
2023-04-02T19:01:11.391Z,3.33
2023-04-02T19:03:43.995Z,3.17
2023-04-02T19:06:19.188Z,3.67
2023-04-02T19:08:48.546Z,4.93
2023-04-02T19:11:19.254Z,3.40
2023-04-02T19:13:46.001Z,3.27
2023-04-02T19:16:27.704Z,3.20
2023-04-02T19:19:08.740Z,2.10
2023-04-02T19:21:38.149Z,2.93
2023-04-02T19:24:11.165Z,2.90
2023-04-02T19:26:54.046Z,3.33
2023-04-02T19:29:26.625Z,2.37
2023-04-02T19:32:14.611Z,2.70
2023-04-02T19:34:44.954Z,2.00
2023-04-02T19:37:17.895Z,4.60
2023-04-02T19:39:53.444Z,7.90
2023-04-02T19:42:34.020Z,5.80
2023-04-02T19:45:01.572Z,3.10
2023-04-02T19:47:27.890Z,3.17
2023-04-02T19:49:54.543Z,3.27
2023-04-02T19:52:21.084Z,3.17
2023-04-02T19:54:47.375Z,2.27
2023-04-02T19:57:14.747Z,5.10
2023-04-02T19:59:41.110Z,2.53
2023-04-02T20:02:12.105Z,2.07
2023-04-02T20:04:38.490Z,1.97
2023-04-02T20:07:04.768Z,2.40
2023-04-02T20:09:31.387Z,2.53
2023-04-02T20:11:57.679Z,2.63
2023-04-02T20:14:24.030Z,2.17
2023-04-02T20:16:50.537Z,3.70
2023-04-02T20:19:17.567Z,2.23
2023-04-02T20:21:43.821Z,3.30
2023-04-02T20:24:10.081Z,1.80
2023-04-02T20:26:36.367Z,2.30
2023-04-02T20:29:02.943Z,3.30
2023-04-02T20:31:29.426Z,2.93
2023-04-02T20:33:57.629Z,2.07
2023-04-02T20:36:25.183Z,4.00
2023-04-02T20:38:52.072Z,4.67
2023-04-02T20:41:18.922Z,2.20
2023-04-02T20:43:45.418Z,2.87
2023-04-02T20:46:12.554Z,3.67
2023-04-02T20:48:39.188Z,2.37
2023-04-02T20:51:07.123Z,3.17
2023-04-02T20:53:36.948Z,4.00
2023-04-02T20:56:07.513Z,2.07
2023-04-02T20:58:35.019Z,2.00
2023-04-02T21:01:08.822Z,1.70
2023-04-02T21:03:35.287Z,2.33
2023-04-02T21:06:01.635Z,2.00
2023-04-02T21:08:27.976Z,3.20
2023-04-02T21:11:00.668Z,2.10
2023-04-02T21:13:28.475Z,4.17
2023-04-02T21:15:54.805Z,1.87
2023-04-02T21:18:21.110Z,2.00
2023-04-02T21:20:55.932Z,1.97
2023-04-02T21:23:22.195Z,2.80
2023-04-02T21:26:02.174Z,1.83
2023-04-02T21:28:28.530Z,2.30
2023-04-02T21:31:04.009Z,1.67
2023-04-02T21:33:31.127Z,2.00
2023-04-02T21:36:04.414Z,3.13
2023-04-02T21:38:31.073Z,2.77
2023-04-02T21:40:57.399Z,2.40
2023-04-02T21:43:23.626Z,2.27
2023-04-02T21:45:49.919Z,2.43
2023-04-02T21:48:16.211Z,1.97
2023-04-02T21:50:42.525Z,3.13
2023-04-02T21:53:08.749Z,3.30
2023-04-02T21:55:35.670Z,3.47
2023-04-02T21:58:01.930Z,2.80
2023-04-02T22:00:28.269Z,2.23
2023-04-02T22:02:54.664Z,2.40
2023-04-02T22:05:21.152Z,3.00
2023-04-02T22:07:47.697Z,3.20
2023-04-02T22:10:15.121Z,2.03
2023-04-02T22:12:41.809Z,2.40
2023-04-02T22:15:08.375Z,3.07
2023-04-02T22:17:34.766Z,1.67
2023-04-02T22:20:01.216Z,2.47
2023-04-02T22:22:27.584Z,2.53
2023-04-02T22:24:53.891Z,3.83
2023-04-02T22:27:20.152Z,3.77
2023-04-02T22:29:46.532Z,2.10
2023-04-02T22:32:12.746Z,2.00
2023-04-02T22:34:45.330Z,3.37
2023-04-02T22:37:11.677Z,2.03
2023-04-02T22:39:37.963Z,2.20
2023-04-02T22:42:04.214Z,2.17
2023-04-02T22:44:30.907Z,2.03
2023-04-02T22:46:57.236Z,2.87
2023-04-02T22:49:23.481Z,2.20
2023-04-02T22:51:49.781Z,3.43
2023-04-02T22:54:16.050Z,2.47
2023-04-02T22:56:42.397Z,3.53
2023-04-02T22:59:08.812Z,2.70
2023-04-02T23:01:35.778Z,1.80
2023-04-02T23:04:04.741Z,1.90
2023-04-02T23:06:31.055Z,2.47
2023-04-02T23:08:57.355Z,1.80
2023-04-02T23:11:24.812Z,1.70
2023-04-02T23:13:52.307Z,2.13
2023-04-02T23:16:19.056Z,2.57
2023-04-02T23:18:47.767Z,2.17
2023-04-02T23:21:14.370Z,3.00
2023-04-02T23:23:40.637Z,2.13
2023-04-02T23:26:08.874Z,3.33
2023-04-02T23:28:35.894Z,2.63
2023-04-02T23:31:03.783Z,3.57
2023-04-02T23:33:30.514Z,2.63
2023-04-02T23:35:57.043Z,2.90
2023-04-02T23:38:23.324Z,2.23
2023-04-02T23:40:49.656Z,3.87
2023-04-02T23:43:15.928Z,4.67
2023-04-02T23:45:46.047Z,5.77
2023-04-02T23:48:12.271Z,3.80
2023-04-02T23:50:38.813Z,4.83
2023-04-02T23:53:05.142Z,3.37
2023-04-02T23:55:31.505Z,2.60
2023-04-02T23:57:57.835Z,4.63
